sensor_id;sensor_type;location;lat;lon;timestamp;pressure;altitude;pressure_sealevel;temperature;humidity
47985;BME280;33753;52.912;-7.342;2023-02-24T00:01:45;101022.00;;;4.81;100.00
47985;BME280;33753;52.912;-7.342;2023-02-24T00:04:18;101022.84;;;4.81;100.00
47985;BME280;33753;52.912;-7.342;2023-02-24T00:06:47;101026.50;;;4.80;100.00
47985;BME280;33753;52.912;-7.342;2023-02-24T00:09:16;101014.09;;;4.79;100.00
47985;BME280;33753;52.912;-7.342;2023-02-24T00:11:47;101006.03;;;4.79;100.00
47985;BME280;33753;52.912;-7.342;2023-02-24T00:14:16;101012.25;;;4.80;100.00
47985;BME280;33753;52.912;-7.342;2023-02-24T00:16:44;101009.81;;;4.77;100.00
47985;BME280;33753;52.912;-7.342;2023-02-24T00:19:14;101005.19;;;4.79;100.00
47985;BME280;33753;52.912;-7.342;2023-02-24T00:21:43;101004.19;;;4.80;100.00
47985;BME280;33753;52.912;-7.342;2023-02-24T00:24:12;100999.97;;;4.77;100.00
47985;BME280;33753;52.912;-7.342;2023-02-24T00:26:40;100998.13;;;4.78;100.00
47985;BME280;33753;52.912;-7.342;2023-02-24T00:29:10;101006.16;;;4.78;100.00
47985;BME280;33753;52.912;-7.342;2023-02-24T00:31:39;101006.16;;;4.78;100.00
47985;BME280;33753;52.912;-7.342;2023-02-24T00:34:09;101000.94;;;4.76;100.00
47985;BME280;33753;52.912;-7.342;2023-02-24T00:36:39;101003.72;;;4.75;100.00
47985;BME280;33753;52.912;-7.342;2023-02-24T00:39:09;101000.06;;;4.76;100.00
47985;BME280;33753;52.912;-7.342;2023-02-24T00:41:39;100992.25;;;4.73;100.00
47985;BME280;33753;52.912;-7.342;2023-02-24T00:44:10;100986.78;;;4.74;100.00
47985;BME280;33753;52.912;-7.342;2023-02-24T00:46:40;100991.16;;;4.75;100.00
47985;BME280;33753;52.912;-7.342;2023-02-24T00:49:10;100986.66;;;4.76;100.00
47985;BME280;33753;52.912;-7.342;2023-02-24T00:51:44;100992.00;;;4.76;100.00
47985;BME280;33753;52.912;-7.342;2023-02-24T00:54:13;100992.00;;;4.76;100.00
47985;BME280;33753;52.912;-7.342;2023-02-24T00:56:42;101003.59;;;4.76;100.00
47985;BME280;33753;52.912;-7.342;2023-02-24T00:59:13;100997.28;;;4.77;100.00
47985;BME280;33753;52.912;-7.342;2023-02-24T01:01:43;100991.78;;;4.79;100.00
47985;BME280;33753;52.912;-7.342;2023-02-24T01:04:12;100989.00;;;4.80;100.00
47985;BME280;33753;52.912;-7.342;2023-02-24T01:06:43;100982.63;;;4.81;100.00
47985;BME280;33753;52.912;-7.342;2023-02-24T01:09:13;100982.53;;;4.83;100.00
47985;BME280;33753;52.912;-7.342;2023-02-24T01:11:42;100973.50;;;4.84;100.00
47985;BME280;33753;52.912;-7.342;2023-02-24T01:14:45;100966.22;;;4.86;100.00
47985;BME280;33753;52.912;-7.342;2023-02-24T01:17:14;100971.56;;;4.86;100.00
47985;BME280;33753;52.912;-7.342;2023-02-24T01:19:42;100973.25;;;4.87;100.00
47985;BME280;33753;52.912;-7.342;2023-02-24T01:22:13;100974.97;;;4.88;100.00
47985;BME280;33753;52.912;-7.342;2023-02-24T01:24:42;100972.28;;;4.88;100.00
47985;BME280;33753;52.912;-7.342;2023-02-24T01:27:12;100960.59;;;4.89;100.00
47985;BME280;33753;52.912;-7.342;2023-02-24T01:29:44;100958.63;;;4.91;100.00
47985;BME280;33753;52.912;-7.342;2023-02-24T01:32:13;100959.50;;;4.92;100.00
47985;BME280;33753;52.912;-7.342;2023-02-24T01:34:45;100961.06;;;4.94;100.00
47985;BME280;33753;52.912;-7.342;2023-02-24T01:37:13;100969.03;;;4.96;100.00
47985;BME280;33753;52.912;-7.342;2023-02-24T01:39:42;100967.19;;;4.96;100.00
47985;BME280;33753;52.912;-7.342;2023-02-24T01:42:12;100959.84;;;4.98;100.00
47985;BME280;33753;52.912;-7.342;2023-02-24T01:45:04;100964.13;;;5.01;100.00
47985;BME280;33753;52.912;-7.342;2023-02-24T01:47:39;100956.06;;;5.01;100.00
47985;BME280;33753;52.912;-7.342;2023-02-24T01:50:08;100965.84;;;5.02;100.00
47985;BME280;33753;52.912;-7.342;2023-02-24T01:52:41;100961.19;;;5.04;100.00
47985;BME280;33753;52.912;-7.342;2023-02-24T01:55:12;100960.34;;;5.04;100.00
47985;BME280;33753;52.912;-7.342;2023-02-24T01:57:42;100955.56;;;5.07;100.00
47985;BME280;33753;52.912;-7.342;2023-02-24T02:00:14;100957.41;;;5.07;100.00
47985;BME280;33753;52.912;-7.342;2023-02-24T02:02:59;100953.03;;;5.06;100.00
47985;BME280;33753;52.912;-7.342;2023-02-24T02:05:30;100953.28;;;5.02;100.00
47985;BME280;33753;52.912;-7.342;2023-02-24T02:07:58;100953.66;;;4.98;100.00
47985;BME280;33753;52.912;-7.342;2023-02-24T02:10:26;100951.59;;;4.90;100.00
47985;BME280;33753;52.912;-7.342;2023-02-24T02:12:55;100945.88;;;4.83;100.00
47985;BME280;33753;52.912;-7.342;2023-02-24T02:15:26;100940.38;;;4.74;100.00
47985;BME280;33753;52.912;-7.342;2023-02-24T02:17:56;100939.16;;;4.66;100.00
47985;BME280;33753;52.912;-7.342;2023-02-24T02:23:21;100916.50;;;4.59;100.00
47985;BME280;33753;52.912;-7.342;2023-02-24T02:26:01;100916.75;;;4.56;100.00
47985;BME280;33753;52.912;-7.342;2023-02-24T02:28:49;100909.09;;;4.52;100.00
47985;BME280;33753;52.912;-7.342;2023-02-24T02:31:31;100905.91;;;4.46;100.00
47985;BME280;33753;52.912;-7.342;2023-02-24T02:36:53;100906.75;;;4.47;100.00
47985;BME280;33753;52.912;-7.342;2023-02-24T02:39:26;100903.34;;;4.45;100.00
47985;BME280;33753;52.912;-7.342;2023-02-24T02:42:02;100890.69;;;4.47;100.00
47985;BME280;33753;52.912;-7.342;2023-02-24T02:44:34;100900.44;;;4.48;100.00
47985;BME280;33753;52.912;-7.342;2023-02-24T02:47:08;100894.09;;;4.49;100.00
47985;BME280;33753;52.912;-7.342;2023-02-24T02:49:39;100896.66;;;4.50;100.00
47985;BME280;33753;52.912;-7.342;2023-02-24T02:52:12;100894.81;;;4.51;100.00
47985;BME280;33753;52.912;-7.342;2023-02-24T02:54:44;100898.38;;;4.52;100.00
47985;BME280;33753;52.912;-7.342;2023-02-24T02:57:16;100895.78;;;4.50;100.00
47985;BME280;33753;52.912;-7.342;2023-02-24T02:59:50;100892.38;;;4.48;100.00
47985;BME280;33753;52.912;-7.342;2023-02-24T03:02:20;100884.59;;;4.45;100.00
47985;BME280;33753;52.912;-7.342;2023-02-24T03:04:56;100883.63;;;4.46;100.00
47985;BME280;33753;52.912;-7.342;2023-02-24T03:07:28;100887.03;;;4.48;100.00
47985;BME280;33753;52.912;-7.342;2023-02-24T03:09:58;100878.03;;;4.49;100.00
47985;BME280;33753;52.912;-7.342;2023-02-24T03:12:28;100881.44;;;4.51;100.00
47985;BME280;33753;52.912;-7.342;2023-02-24T03:14:59;100880.94;;;4.57;100.00
47985;BME280;33753;52.912;-7.342;2023-02-24T03:17:31;100882.63;;;4.58;100.00
47985;BME280;33753;52.912;-7.342;2023-02-24T03:20:04;100875.94;;;4.64;100.00
47985;BME280;33753;52.912;-7.342;2023-02-24T03:22:44;100870.13;;;4.70;100.00
47985;BME280;33753;52.912;-7.342;2023-02-24T03:25:17;100867.06;;;4.75;100.00
47985;BME280;33753;52.912;-7.342;2023-02-24T03:27:50;100865.72;;;4.80;100.00
47985;BME280;33753;52.912;-7.342;2023-02-24T03:30:24;100881.53;;;4.83;100.00
47985;BME280;33753;52.912;-7.342;2023-02-24T03:32:55;100878.59;;;4.87;100.00
47985;BME280;33753;52.912;-7.342;2023-02-24T03:35:28;100878.22;;;4.91;100.00
47985;BME280;33753;52.912;-7.342;2023-02-24T03:38:00;100861.88;;;4.94;100.00
47985;BME280;33753;52.912;-7.342;2023-02-24T03:40:29;100858.97;;;4.97;100.00
47985;BME280;33753;52.912;-7.342;2023-02-24T03:43:02;100855.28;;;4.98;100.00
47985;BME280;33753;52.912;-7.342;2023-02-24T03:45:33;100848.84;;;5.01;100.00
47985;BME280;33753;52.912;-7.342;2023-02-24T03:48:03;100849.59;;;5.03;100.00
47985;BME280;33753;52.912;-7.342;2023-02-24T03:50:32;100849.59;;;5.03;100.00
47985;BME280;33753;52.912;-7.342;2023-02-24T03:53:11;100855.53;;;5.07;100.00
47985;BME280;33753;52.912;-7.342;2023-02-24T03:55:46;100854.56;;;5.08;100.00
47985;BME280;33753;52.912;-7.342;2023-02-24T03:58:27;100846.53;;;5.08;100.00
47985;BME280;33753;52.912;-7.342;2023-02-24T04:00:59;100833.81;;;5.10;100.00
47985;BME280;33753;52.912;-7.342;2023-02-24T04:03:34;100838.09;;;5.12;100.00
47985;BME280;33753;52.912;-7.342;2023-02-24T04:06:33;100840.63;;;5.14;100.00
47985;BME280;33753;52.912;-7.342;2023-02-24T04:09:11;100833.34;;;5.16;100.00
47985;BME280;33753;52.912;-7.342;2023-02-24T04:11:52;100832.19;;;5.18;100.00
47985;BME280;33753;52.912;-7.342;2023-02-24T04:14:36;100829.16;;;5.23;100.00
47985;BME280;33753;52.912;-7.342;2023-02-24T04:17:17;100817.19;;;5.27;100.00
47985;BME280;33753;52.912;-7.342;2023-02-24T04:19:49;100816.19;;;5.28;100.00
47985;BME280;33753;52.912;-7.342;2023-02-24T04:22:19;100822.44;;;5.29;100.00
47985;BME280;33753;52.912;-7.342;2023-02-24T04:24:52;100811.94;;;5.26;100.00
47985;BME280;33753;52.912;-7.342;2023-02-24T04:27:22;100816.19;;;5.28;100.00
47985;BME280;33753;52.912;-7.342;2023-02-24T04:29:54;100812.81;;;5.26;100.00
47985;BME280;33753;52.912;-7.342;2023-02-24T04:32:27;100821.56;;;5.28;100.00
47985;BME280;33753;52.912;-7.342;2023-02-24T04:35:00;100808.91;;;5.30;100.00
47985;BME280;33753;52.912;-7.342;2023-02-24T04:37:28;100816.69;;;5.33;100.00
47985;BME280;33753;52.912;-7.342;2023-02-24T04:40:02;100812.03;;;5.35;100.00
47985;BME280;33753;52.912;-7.342;2023-02-24T04:42:36;100819.09;;;5.36;100.00
47985;BME280;33753;52.912;-7.342;2023-02-24T04:45:12;100806.41;;;5.39;100.00
47985;BME280;33753;52.912;-7.342;2023-02-24T04:47:42;100803.72;;;5.39;100.00
47985;BME280;33753;52.912;-7.342;2023-02-24T04:50:12;100809.56;;;5.44;100.00
47985;BME280;33753;52.912;-7.342;2023-02-24T04:52:49;100802.22;;;5.46;100.00
47985;BME280;33753;52.912;-7.342;2023-02-24T04:55:19;100801.25;;;5.47;100.00
47985;BME280;33753;52.912;-7.342;2023-02-24T04:57:48;100793.78;;;5.50;100.00
47985;BME280;33753;52.912;-7.342;2023-02-24T05:00:16;100790.97;;;5.52;100.00
47985;BME280;33753;52.912;-7.342;2023-02-24T05:02:48;100792.69;;;5.53;100.00
47985;BME280;33753;52.912;-7.342;2023-02-24T05:05:17;100794.38;;;5.54;100.00
47985;BME280;33753;52.912;-7.342;2023-02-24T05:07:51;100787.06;;;5.56;100.00
47985;BME280;33753;52.912;-7.342;2023-02-24T05:10:22;100789.47;;;5.59;100.00
47985;BME280;33753;52.912;-7.342;2023-02-24T05:12:54;100792.72;;;5.63;100.00
47985;BME280;33753;52.912;-7.342;2023-02-24T05:15:24;100786.25;;;5.65;100.00
47985;BME280;33753;52.912;-7.342;2023-02-24T05:17:57;100784.03;;;5.70;100.00
47985;BME280;33753;52.912;-7.342;2023-02-24T05:20:27;100778.53;;;5.72;100.00
47985;BME280;33753;52.912;-7.342;2023-02-24T05:23:13;100776.69;;;5.72;100.00
47985;BME280;33753;52.912;-7.342;2023-02-24T05:25:44;100773.88;;;5.74;100.00
47985;BME280;33753;52.912;-7.342;2023-02-24T05:28:12;100774.59;;;5.76;100.00
47985;BME280;33753;52.912;-7.342;2023-02-24T05:30:41;100771.66;;;5.79;100.00
47985;BME280;33753;52.912;-7.342;2023-02-24T05:33:09;100773.38;;;5.80;100.00
47985;BME280;33753;52.912;-7.342;2023-02-24T05:35:39;100764.44;;;5.80;100.00
47985;BME280;33753;52.912;-7.342;2023-02-24T05:38:07;100762.88;;;5.77;100.00
47985;BME280;33753;52.912;-7.342;2023-02-24T05:40:36;100756.19;;;5.71;100.00
47985;BME280;33753;52.912;-7.342;2023-02-24T05:43:13;100758.25;;;5.58;100.00
47985;BME280;33753;52.912;-7.342;2023-02-24T05:45:44;100756.31;;;5.60;100.00
47985;BME280;33753;52.912;-7.342;2023-02-24T05:48:13;100744.41;;;5.53;100.00
47985;BME280;33753;52.912;-7.342;2023-02-24T05:50:41;100741.50;;;5.45;100.00
47985;BME280;33753;52.912;-7.342;2023-02-24T05:53:12;100741.19;;;5.38;100.00
47985;BME280;33753;52.912;-7.342;2023-02-24T05:55:40;100742.53;;;5.32;100.00
47985;BME280;33753;52.912;-7.342;2023-02-24T05:58:09;100742.69;;;5.31;100.00
47985;BME280;33753;52.912;-7.342;2023-02-24T06:00:39;100745.50;;;5.29;100.00
47985;BME280;33753;52.912;-7.342;2023-02-24T06:03:11;100737.72;;;5.26;100.00
47985;BME280;33753;52.912;-7.342;2023-02-24T06:05:43;100726.38;;;5.23;100.00
47985;BME280;33753;52.912;-7.342;2023-02-24T06:08:19;100737.09;;;5.23;100.00
47985;BME280;33753;52.912;-7.342;2023-02-24T06:10:50;100728.50;;;5.19;100.00
47985;BME280;33753;52.912;-7.342;2023-02-24T06:13:19;100727.25;;;5.23;100.00
47985;BME280;33753;52.912;-7.342;2023-02-24T06:15:49;100729.94;;;5.23;100.00
47985;BME280;33753;52.912;-7.342;2023-02-24T06:18:23;100735.16;;;5.25;100.00
47985;BME280;33753;52.912;-7.342;2023-02-24T06:20:51;100728.09;;;5.24;100.00
47985;BME280;33753;52.912;-7.342;2023-02-24T06:23:19;100735.75;;;5.28;100.00
47985;BME280;33753;52.912;-7.342;2023-02-24T06:25:48;100731.13;;;5.30;100.00
47985;BME280;33753;52.912;-7.342;2023-02-24T06:28:16;100724.75;;;5.31;100.00
47985;BME280;33753;52.912;-7.342;2023-02-24T06:30:45;100723.63;;;5.34;100.00
47985;BME280;33753;52.912;-7.342;2023-02-24T06:33:15;100726.91;;;5.38;100.00
47985;BME280;33753;52.912;-7.342;2023-02-24T06:35:44;100733.97;;;5.39;100.00
47985;BME280;33753;52.912;-7.342;2023-02-24T06:38:13;100729.88;;;5.34;100.00
47985;BME280;33753;52.912;-7.342;2023-02-24T06:40:41;100728.38;;;5.42;100.00
47985;BME280;33753;52.912;-7.342;2023-02-24T06:43:09;100723.72;;;5.44;100.00
47985;BME280;33753;52.912;-7.342;2023-02-24T06:45:38;100734.16;;;5.47;100.00
47985;BME280;33753;52.912;-7.342;2023-02-24T06:48:06;100729.41;;;5.50;100.00
47985;BME280;33753;52.912;-7.342;2023-02-24T06:50:36;100727.69;;;5.49;100.00
47985;BME280;33753;52.912;-7.342;2023-02-24T06:53:07;100725.34;;;5.56;100.00
47985;BME280;33753;52.912;-7.342;2023-02-24T06:55:42;100726.78;;;5.60;100.00
47985;BME280;33753;52.912;-7.342;2023-02-24T06:58:14;100723.97;;;5.62;100.00
47985;BME280;33753;52.912;-7.342;2023-02-24T07:00:43;100727.22;;;5.65;100.00
47985;BME280;33753;52.912;-7.342;2023-02-24T07:03:23;100728.66;;;5.69;100.00
47985;BME280;33753;52.912;-7.342;2023-02-24T07:06:06;100719.63;;;5.70;100.00
47985;BME280;33753;52.912;-7.342;2023-02-24T07:08:46;100729.81;;;5.77;100.00
47985;BME280;33753;52.912;-7.342;2023-02-24T07:11:15;100733.66;;;5.84;100.00
47985;BME280;33753;52.912;-7.342;2023-02-24T07:13:45;100731.72;;;5.86;100.00
47985;BME280;33753;52.912;-7.342;2023-02-24T07:16:14;100728.75;;;5.89;100.00
47985;BME280;33753;52.912;-7.342;2023-02-24T07:18:43;100726.78;;;5.91;100.00
47985;BME280;33753;52.912;-7.342;2023-02-24T07:21:15;100721.41;;;5.91;100.00
47985;BME280;33753;52.912;-7.342;2023-02-24T07:23:49;100731.44;;;5.89;100.00
47985;BME280;33753;52.912;-7.342;2023-02-24T07:26:25;100727.31;;;5.85;100.00
47985;BME280;33753;52.912;-7.342;2023-02-24T07:28:56;100722.50;;;5.79;100.00
47985;BME280;33753;52.912;-7.342;2023-02-24T07:31:24;100725.19;;;5.79;100.00
47985;BME280;33753;52.912;-7.342;2023-02-24T07:33:53;100725.03;;;5.80;100.00
47985;BME280;33753;52.912;-7.342;2023-02-24T07:36:24;100719.69;;;5.80;100.00
47985;BME280;33753;52.912;-7.342;2023-02-24T07:38:56;100714.03;;;5.83;100.00
47985;BME280;33753;52.912;-7.342;2023-02-24T07:41:25;100722.50;;;5.88;100.00
47985;BME280;33753;52.912;-7.342;2023-02-24T07:43:56;100710.09;;;5.87;100.00
47985;BME280;33753;52.912;-7.342;2023-02-24T07:46:32;100714.09;;;5.93;100.00
47985;BME280;33753;52.912;-7.342;2023-02-24T07:49:01;100712.66;;;5.89;100.00
47985;BME280;33753;52.912;-7.342;2023-02-24T07:51:31;100701.91;;;5.89;100.00
47985;BME280;33753;52.912;-7.342;2023-02-24T07:53:59;100702.28;;;5.84;100.00
47985;BME280;33753;52.912;-7.342;2023-02-24T07:56:29;100706.13;;;5.82;100.00
47985;BME280;33753;52.912;-7.342;2023-02-24T07:58:59;100699.03;;;5.81;100.00
47985;BME280;33753;52.912;-7.342;2023-02-24T08:01:28;100690.53;;;5.76;100.00
47985;BME280;33753;52.912;-7.342;2023-02-24T08:03:58;100693.50;;;5.72;100.00
47985;BME280;33753;52.912;-7.342;2023-02-24T08:06:30;100698.44;;;5.67;100.00
47985;BME280;33753;52.912;-7.342;2023-02-24T08:09:04;100693.91;;;5.68;100.00
47985;BME280;33753;52.912;-7.342;2023-02-24T08:11:42;100699.81;;;5.62;100.00
47985;BME280;33753;52.912;-7.342;2023-02-24T08:14:12;100695.97;;;5.64;100.00
47985;BME280;33753;52.912;-7.342;2023-02-24T08:16:41;100700.78;;;5.61;100.00
47985;BME280;33753;52.912;-7.342;2023-02-24T08:19:10;100702.88;;;5.57;100.00
47985;BME280;33753;52.912;-7.342;2023-02-24T08:21:41;100705.56;;;5.57;100.00
47985;BME280;33753;52.912;-7.342;2023-02-24T08:24:14;100697.06;;;5.52;100.00
47985;BME280;33753;52.912;-7.342;2023-02-24T08:26:45;100700.19;;;5.57;100.00
47985;BME280;33753;52.912;-7.342;2023-02-24T08:29:29;100699.22;;;5.58;100.00
47985;BME280;33753;52.912;-7.342;2023-02-24T08:32:06;100699.22;;;5.58;100.00
47985;BME280;33753;52.912;-7.342;2023-02-24T08:34:35;100702.03;;;5.57;100.00
47985;BME280;33753;52.912;-7.342;2023-02-24T08:37:05;100693.84;;;5.58;100.00
47985;BME280;33753;52.912;-7.342;2023-02-24T08:39:33;100695.81;;;5.56;100.00
47985;BME280;33753;52.912;-7.342;2023-02-24T08:42:02;100683.94;;;5.59;100.00
47985;BME280;33753;52.912;-7.342;2023-02-24T08:44:30;100686.53;;;5.60;100.00
47985;BME280;33753;52.912;-7.342;2023-02-24T08:47:00;100691.63;;;5.63;100.00
47985;BME280;33753;52.912;-7.342;2023-02-24T08:49:31;100695.00;;;5.65;100.00
47985;BME280;33753;52.912;-7.342;2023-02-24T08:51:59;100687.94;;;5.64;100.00
47985;BME280;33753;52.912;-7.342;2023-02-24T08:54:30;100687.56;;;5.69;100.00
47985;BME280;33753;52.912;-7.342;2023-02-24T08:56:58;100692.50;;;5.74;100.00
47985;BME280;33753;52.912;-7.342;2023-02-24T08:59:35;100689.16;;;5.81;100.00
47985;BME280;33753;52.912;-7.342;2023-02-24T09:02:14;100698.50;;;5.87;100.00
47985;BME280;33753;52.912;-7.342;2023-02-24T09:04:50;100697.50;;;5.88;100.00
47985;BME280;33753;52.912;-7.342;2023-02-24T09:07:20;100697.97;;;5.93;100.00
47985;BME280;33753;52.912;-7.342;2023-02-24T09:09:51;100691.09;;;6.00;100.00
47985;BME280;33753;52.912;-7.342;2023-02-24T09:12:23;100683.47;;;6.05;100.00
47985;BME280;33753;52.912;-7.342;2023-02-24T09:14:53;100687.31;;;6.13;100.00
47985;BME280;33753;52.912;-7.342;2023-02-24T09:17:23;100680.53;;;6.18;100.00
47985;BME280;33753;52.912;-7.342;2023-02-24T09:20:19;100675.47;;;6.25;100.00
47985;BME280;33753;52.912;-7.342;2023-02-24T09:23:15;100670.13;;;6.35;100.00
47985;BME280;33753;52.912;-7.342;2023-02-24T09:25:47;100666.19;;;6.39;100.00
47985;BME280;33753;52.912;-7.342;2023-02-24T09:28:21;100663.63;;;6.47;100.00
47985;BME280;33753;52.912;-7.342;2023-02-24T09:30:52;100659.13;;;6.57;100.00
47985;BME280;33753;52.912;-7.342;2023-02-24T09:33:21;100655.13;;;6.71;100.00
47985;BME280;33753;52.912;-7.342;2023-02-24T09:35:57;100657.53;;;6.84;100.00
47985;BME280;33753;52.912;-7.342;2023-02-24T09:38:42;100656.69;;;7.03;100.00
47985;BME280;33753;52.912;-7.342;2023-02-24T09:41:32;100651.13;;;7.24;100.00
47985;BME280;33753;52.912;-7.342;2023-02-24T09:44:24;100650.72;;;7.67;100.00
47985;BME280;33753;52.912;-7.342;2023-02-24T09:46:56;100646.50;;;7.92;100.00
47985;BME280;33753;52.912;-7.342;2023-02-24T09:49:29;100650.16;;;8.19;100.00
47985;BME280;33753;52.912;-7.342;2023-02-24T09:52:11;100643.75;;;8.20;100.00
47985;BME280;33753;52.912;-7.342;2023-02-24T09:54:46;100634.13;;;8.17;100.00
47985;BME280;33753;52.912;-7.342;2023-02-24T09:57:35;100621.84;;;8.15;100.00
47985;BME280;33753;52.912;-7.342;2023-02-24T10:00:22;100623.97;;;8.11;100.00
47985;BME280;33753;52.912;-7.342;2023-02-24T10:03:03;100617.91;;;8.09;100.00
47985;BME280;33753;52.912;-7.342;2023-02-24T10:05:49;100618.75;;;8.09;100.00
47985;BME280;33753;52.912;-7.342;2023-02-24T10:08:28;100619.00;;;8.16;100.00
47985;BME280;33753;52.912;-7.342;2023-02-24T10:11:00;100616.56;;;8.13;100.00
47985;BME280;33753;52.912;-7.342;2023-02-24T10:13:34;100619.41;;;8.11;100.00
47985;BME280;33753;52.912;-7.342;2023-02-24T10:16:08;100611.34;;;8.11;100.00
47985;BME280;33753;52.912;-7.342;2023-02-24T10:18:38;100605.94;;;8.11;100.00
47985;BME280;33753;52.912;-7.342;2023-02-24T10:21:14;100601.19;;;8.05;100.00
47985;BME280;33753;52.912;-7.342;2023-02-24T10:23:50;100607.28;;;8.07;100.00
47985;BME280;33753;52.912;-7.342;2023-02-24T10:26:28;100598.94;;;8.01;100.00
47985;BME280;33753;52.912;-7.342;2023-02-24T10:29:28;100593.56;;;8.01;100.00
47985;BME280;33753;52.912;-7.342;2023-02-24T10:32:05;100615.38;;;8.07;100.00
47985;BME280;33753;52.912;-7.342;2023-02-24T10:34:35;100612.06;;;8.13;100.00
47985;BME280;33753;52.912;-7.342;2023-02-24T10:37:09;100607.66;;;8.12;100.00
47985;BME280;33753;52.912;-7.342;2023-02-24T10:39:56;100602.75;;;8.26;100.00
47985;BME280;33753;52.912;-7.342;2023-02-24T10:42:26;100605.19;;;8.37;100.00
47985;BME280;33753;52.912;-7.342;2023-02-24T10:45:06;100607.16;;;8.63;100.00
47985;BME280;33753;52.912;-7.342;2023-02-24T10:47:43;100602.81;;;8.70;100.00
47985;BME280;33753;52.912;-7.342;2023-02-24T10:50:18;100598.38;;;8.79;100.00
47985;BME280;33753;52.912;-7.342;2023-02-24T10:52:48;100599.75;;;8.83;100.00
47985;BME280;33753;52.912;-7.342;2023-02-24T10:55:39;100600.91;;;9.07;100.00
47985;BME280;33753;52.912;-7.342;2023-02-24T10:58:29;100604.19;;;9.19;100.00
47985;BME280;33753;52.912;-7.342;2023-02-24T11:01:17;100600.13;;;9.14;100.00
47985;BME280;33753;52.912;-7.342;2023-02-24T11:03:49;100598.38;;;9.05;100.00
47985;BME280;33753;52.912;-7.342;2023-02-24T11:06:28;100589.81;;;9.10;100.00
47985;BME280;33753;52.912;-7.342;2023-02-24T11:09:19;100595.09;;;9.20;100.00
47985;BME280;33753;52.912;-7.342;2023-02-24T11:12:02;100581.13;;;9.24;100.00
47985;BME280;33753;52.912;-7.342;2023-02-24T11:14:49;100589.69;;;9.20;100.00
47985;BME280;33753;52.912;-7.342;2023-02-24T11:17:36;100592.03;;;9.14;100.00
47985;BME280;33753;52.912;-7.342;2023-02-24T11:20:27;100593.00;;;9.05;100.00
47985;BME280;33753;52.912;-7.342;2023-02-24T11:23:12;100591.28;;;9.04;100.00
47985;BME280;33753;52.912;-7.342;2023-02-24T11:25:45;100589.28;;;9.06;100.00
47985;BME280;33753;52.912;-7.342;2023-02-24T11:28:22;100585.13;;;9.20;100.00
47985;BME280;33753;52.912;-7.342;2023-02-24T11:30:55;100580.28;;;9.24;100.00
47985;BME280;33753;52.912;-7.342;2023-02-24T11:33:28;100574.50;;;9.19;100.00
47985;BME280;33753;52.912;-7.342;2023-02-24T11:36:02;100580.28;;;9.24;100.00
47985;BME280;33753;52.912;-7.342;2023-02-24T11:38:35;100580.97;;;9.26;100.00
47985;BME280;33753;52.912;-7.342;2023-02-24T11:41:07;100565.34;;;9.38;100.00
47985;BME280;33753;52.912;-7.342;2023-02-24T11:43:41;100569.94;;;9.45;100.00
47985;BME280;33753;52.912;-7.342;2023-02-24T11:46:11;100574.03;;;9.58;100.00
47985;BME280;33753;52.912;-7.342;2023-02-24T11:48:42;100572.84;;;9.52;100.00
47985;BME280;33753;52.912;-7.342;2023-02-24T11:51:14;100574.34;;;9.46;100.00
47985;BME280;33753;52.912;-7.342;2023-02-24T11:53:45;100569.59;;;9.48;100.00
47985;BME280;33753;52.912;-7.342;2023-02-24T11:56:16;100571.97;;;9.51;100.00
47985;BME280;33753;52.912;-7.342;2023-02-24T11:58:49;100558.91;;;9.39;100.00
47985;BME280;33753;52.912;-7.342;2023-02-24T12:01:21;100559.66;;;9.49;100.00
47985;BME280;33753;52.912;-7.342;2023-02-24T12:03:54;100558.00;;;9.56;100.00
47985;BME280;33753;52.912;-7.342;2023-02-24T12:06:28;100558.06;;;9.73;100.00
47985;BME280;33753;52.912;-7.342;2023-02-24T12:08:59;100550.84;;;9.90;100.00
47985;BME280;33753;52.912;-7.342;2023-02-24T12:11:36;100548.88;;;10.08;100.00
47985;BME280;33753;52.912;-7.342;2023-02-24T12:14:14;100543.09;;;9.95;100.00
47985;BME280;33753;52.912;-7.342;2023-02-24T12:16:47;100547.13;;;9.82;100.00
47985;BME280;33753;52.912;-7.342;2023-02-24T12:19:20;100546.81;;;9.94;100.00
47985;BME280;33753;52.912;-7.342;2023-02-24T12:21:52;100536.53;;;10.06;100.00
47985;BME280;33753;52.912;-7.342;2023-02-24T12:24:23;100531.81;;;10.32;100.00
47985;BME280;33753;52.912;-7.342;2023-02-24T12:26:55;100528.97;;;10.67;100.00
47985;BME280;33753;52.912;-7.342;2023-02-24T12:29:36;100536.03;;;11.09;100.00
47985;BME280;33753;52.912;-7.342;2023-02-24T12:32:10;100529.78;;;11.00;100.00
47985;BME280;33753;52.912;-7.342;2023-02-24T12:34:43;100531.81;;;10.98;100.00
47985;BME280;33753;52.912;-7.342;2023-02-24T12:37:20;100517.25;;;10.99;100.00
47985;BME280;33753;52.912;-7.342;2023-02-24T12:39:51;100517.25;;;10.99;100.00
47985;BME280;33753;52.912;-7.342;2023-02-24T12:42:26;100520.81;;;10.92;100.00
47985;BME280;33753;52.912;-7.342;2023-02-24T12:45:00;100531.34;;;10.78;100.00
47985;BME280;33753;52.912;-7.342;2023-02-24T12:47:34;100524.75;;;10.40;100.00
47985;BME280;33753;52.912;-7.342;2023-02-24T12:50:08;100511.53;;;10.28;100.00
47985;BME280;33753;52.912;-7.342;2023-02-24T12:52:45;100511.25;;;10.40;100.00
47985;BME280;33753;52.912;-7.342;2023-02-24T12:55:19;100515.78;;;10.31;100.00
47985;BME280;33753;52.912;-7.342;2023-02-24T12:57:51;100516.47;;;10.25;100.00
47985;BME280;33753;52.912;-7.342;2023-02-24T13:00:25;100526.25;;;10.26;100.00
47985;BME280;33753;52.912;-7.342;2023-02-24T13:02:59;100520.69;;;10.35;100.00
47985;BME280;33753;52.912;-7.342;2023-02-24T13:05:32;100515.44;;;10.26;100.00
47985;BME280;33753;52.912;-7.342;2023-02-24T13:08:08;100515.75;;;10.23;100.00
47985;BME280;33753;52.912;-7.342;2023-02-24T13:10:40;100516.59;;;10.07;100.00
47985;BME280;33753;52.912;-7.342;2023-02-24T13:13:13;100521.84;;;10.08;100.00
47985;BME280;33753;52.912;-7.342;2023-02-24T13:15:50;100509.69;;;10.12;100.00
47985;BME280;33753;52.912;-7.342;2023-02-24T13:18:23;100510.19;;;10.16;100.00